sensor_id;sensor_type;location;lat;lon;timestamp;temperature;humidity
1301;DHT22;67431;48.806;9.160;2023-02-03T00:02:05;6.70;99.90
1301;DHT22;67431;48.806;9.160;2023-02-03T00:04:31;6.60;99.90
1301;DHT22;67431;48.806;9.160;2023-02-03T00:06:57;6.70;99.90
1301;DHT22;67431;48.806;9.160;2023-02-03T00:09:23;6.60;99.90
1301;DHT22;67431;48.806;9.160;2023-02-03T00:11:49;6.70;99.90
1301;DHT22;67431;48.806;9.160;2023-02-03T00:14:15;6.60;99.90
1301;DHT22;67431;48.806;9.160;2023-02-03T00:16:40;6.70;99.90
1301;DHT22;67431;48.806;9.160;2023-02-03T00:19:06;6.60;99.90
1301;DHT22;67431;48.806;9.160;2023-02-03T00:21:35;6.60;99.90
1301;DHT22;67431;48.806;9.160;2023-02-03T00:24:01;6.70;99.90
1301;DHT22;67431;48.806;9.160;2023-02-03T00:26:27;6.70;99.90
1301;DHT22;67431;48.806;9.160;2023-02-03T00:28:58;6.70;99.90
1301;DHT22;67431;48.806;9.160;2023-02-03T00:31:24;6.70;99.90
1301;DHT22;67431;48.806;9.160;2023-02-03T00:33:55;6.60;99.90
1301;DHT22;67431;48.806;9.160;2023-02-03T00:36:21;6.60;99.90
1301;DHT22;67431;48.806;9.160;2023-02-03T00:38:48;6.70;99.90
1301;DHT22;67431;48.806;9.160;2023-02-03T00:41:15;6.70;99.90
1301;DHT22;67431;48.806;9.160;2023-02-03T00:43:44;6.60;99.90
1301;DHT22;67431;48.806;9.160;2023-02-03T00:46:10;6.60;99.90
1301;DHT22;67431;48.806;9.160;2023-02-03T00:48:36;6.60;99.90
1301;DHT22;67431;48.806;9.160;2023-02-03T00:51:02;6.70;99.90
1301;DHT22;67431;48.806;9.160;2023-02-03T00:53:28;6.70;99.90
1301;DHT22;67431;48.806;9.160;2023-02-03T00:55:54;6.70;99.90
1301;DHT22;67431;48.806;9.160;2023-02-03T00:58:21;6.70;99.90
1301;DHT22;67431;48.806;9.160;2023-02-03T01:00:47;6.70;99.90
1301;DHT22;67431;48.806;9.160;2023-02-03T01:03:12;6.80;99.90
1301;DHT22;67431;48.806;9.160;2023-02-03T01:05:38;6.70;99.90
1301;DHT22;67431;48.806;9.160;2023-02-03T01:08:04;6.70;99.90
1301;DHT22;67431;48.806;9.160;2023-02-03T01:10:30;6.70;99.90
1301;DHT22;67431;48.806;9.160;2023-02-03T01:12:56;6.60;99.90
1301;DHT22;67431;48.806;9.160;2023-02-03T01:15:22;6.60;99.90
1301;DHT22;67431;48.806;9.160;2023-02-03T01:17:48;6.60;99.90
1301;DHT22;67431;48.806;9.160;2023-02-03T01:20:14;6.60;99.90
1301;DHT22;67431;48.806;9.160;2023-02-03T01:22:41;6.60;99.90
1301;DHT22;67431;48.806;9.160;2023-02-03T01:25:08;6.50;99.90
1301;DHT22;67431;48.806;9.160;2023-02-03T01:27:34;6.50;99.90
1301;DHT22;67431;48.806;9.160;2023-02-03T01:30:00;6.40;99.90
1301;DHT22;67431;48.806;9.160;2023-02-03T01:32:26;6.50;99.90
1301;DHT22;67431;48.806;9.160;2023-02-03T01:34:52;6.50;99.90
1301;DHT22;67431;48.806;9.160;2023-02-03T01:37:17;6.50;99.90
1301;DHT22;67431;48.806;9.160;2023-02-03T01:39:43;6.40;99.90
1301;DHT22;67431;48.806;9.160;2023-02-03T01:42:14;6.50;99.90
1301;DHT22;67431;48.806;9.160;2023-02-03T01:44:50;6.50;99.90
1301;DHT22;67431;48.806;9.160;2023-02-03T01:47:25;6.50;99.90
1301;DHT22;67431;48.806;9.160;2023-02-03T01:50:12;6.50;99.90
1301;DHT22;67431;48.806;9.160;2023-02-03T01:52:45;6.40;99.90
1301;DHT22;67431;48.806;9.160;2023-02-03T01:55:16;6.50;99.90
1301;DHT22;67431;48.806;9.160;2023-02-03T01:58:03;6.50;99.90
1301;DHT22;67431;48.806;9.160;2023-02-03T02:00:32;6.50;99.90
1301;DHT22;67431;48.806;9.160;2023-02-03T02:02:59;6.50;99.90
1301;DHT22;67431;48.806;9.160;2023-02-03T02:05:31;6.50;99.90
1301;DHT22;67431;48.806;9.160;2023-02-03T02:07:59;6.60;99.90
1301;DHT22;67431;48.806;9.160;2023-02-03T02:10:28;6.60;99.90
1301;DHT22;67431;48.806;9.160;2023-02-03T02:12:56;6.60;99.90
1301;DHT22;67431;48.806;9.160;2023-02-03T02:15:34;6.60;99.90
1301;DHT22;67431;48.806;9.160;2023-02-03T02:38:03;6.60;99.90
1301;DHT22;67431;48.806;9.160;2023-02-03T02:40:52;6.60;99.90
1301;DHT22;67431;48.806;9.160;2023-02-03T02:43:33;6.60;99.90
1301;DHT22;67431;48.806;9.160;2023-02-03T02:46:03;6.50;99.90
1301;DHT22;67431;48.806;9.160;2023-02-03T02:48:41;6.60;99.90
1301;DHT22;67431;48.806;9.160;2023-02-03T02:51:10;6.50;99.90
1301;DHT22;67431;48.806;9.160;2023-02-03T02:53:41;6.50;99.90
1301;DHT22;67431;48.806;9.160;2023-02-03T02:56:09;6.60;99.90
1301;DHT22;67431;48.806;9.160;2023-02-03T02:58:38;6.60;99.90
1301;DHT22;67431;48.806;9.160;2023-02-03T03:01:07;6.70;99.90
1301;DHT22;67431;48.806;9.160;2023-02-03T03:03:37;6.70;99.90
1301;DHT22;67431;48.806;9.160;2023-02-03T03:06:08;6.70;99.90
1301;DHT22;67431;48.806;9.160;2023-02-03T03:11:17;6.70;99.90
1301;DHT22;67431;48.806;9.160;2023-02-03T03:13:51;6.70;99.90
1301;DHT22;67431;48.806;9.160;2023-02-03T03:16:23;6.60;99.90
1301;DHT22;67431;48.806;9.160;2023-02-03T03:19:01;6.80;99.90
1301;DHT22;67431;48.806;9.160;2023-02-03T03:21:35;6.70;99.90
1301;DHT22;67431;48.806;9.160;2023-02-03T03:24:06;6.70;99.90
1301;DHT22;67431;48.806;9.160;2023-02-03T03:26:39;6.70;99.90
1301;DHT22;67431;48.806;9.160;2023-02-03T03:31:39;6.70;99.90
1301;DHT22;67431;48.806;9.160;2023-02-03T03:34:07;6.60;99.90
1301;DHT22;67431;48.806;9.160;2023-02-03T03:36:45;6.60;99.90
1301;DHT22;67431;48.806;9.160;2023-02-03T03:44:21;6.70;99.90
1301;DHT22;67431;48.806;9.160;2023-02-03T03:47:09;6.70;99.90
1301;DHT22;67431;48.806;9.160;2023-02-03T03:49:36;6.70;99.90
1301;DHT22;67431;48.806;9.160;2023-02-03T03:52:08;6.80;99.90
1301;DHT22;67431;48.806;9.160;2023-02-03T03:54:36;6.80;99.90
1301;DHT22;67431;48.806;9.160;2023-02-03T03:57:18;6.80;99.90
1301;DHT22;67431;48.806;9.160;2023-02-03T03:59:47;6.80;99.90
1301;DHT22;67431;48.806;9.160;2023-02-03T04:02:19;6.70;99.90
1301;DHT22;67431;48.806;9.160;2023-02-03T04:04:47;6.70;99.90
1301;DHT22;67431;48.806;9.160;2023-02-03T04:07:14;6.70;99.90
1301;DHT22;67431;48.806;9.160;2023-02-03T04:09:41;6.70;99.90
1301;DHT22;67431;48.806;9.160;2023-02-03T04:12:23;6.70;99.90
1301;DHT22;67431;48.806;9.160;2023-02-03T04:14:49;6.70;99.90
1301;DHT22;67431;48.806;9.160;2023-02-03T04:17:15;6.70;99.90
1301;DHT22;67431;48.806;9.160;2023-02-03T04:19:45;6.60;99.90
1301;DHT22;67431;48.806;9.160;2023-02-03T04:22:11;6.50;99.90
1301;DHT22;67431;48.806;9.160;2023-02-03T04:24:37;6.40;99.90
1301;DHT22;67431;48.806;9.160;2023-02-03T04:27:03;6.30;99.90
1301;DHT22;67431;48.806;9.160;2023-02-03T04:29:29;6.30;99.90
1301;DHT22;67431;48.806;9.160;2023-02-03T04:31:55;6.10;99.90
1301;DHT22;67431;48.806;9.160;2023-02-03T04:34:21;6.10;99.90
1301;DHT22;67431;48.806;9.160;2023-02-03T04:36:47;6.00;99.90
1301;DHT22;67431;48.806;9.160;2023-02-03T04:39:13;5.90;99.90
1301;DHT22;67431;48.806;9.160;2023-02-03T04:41:39;5.90;99.90
1301;DHT22;67431;48.806;9.160;2023-02-03T04:44:06;5.80;99.90
1301;DHT22;67431;48.806;9.160;2023-02-03T04:46:31;5.80;99.90
1301;DHT22;67431;48.806;9.160;2023-02-03T04:48:57;5.80;99.90
1301;DHT22;67431;48.806;9.160;2023-02-03T04:51:23;5.80;99.90
1301;DHT22;67431;48.806;9.160;2023-02-03T04:53:49;5.80;99.90
1301;DHT22;67431;48.806;9.160;2023-02-03T04:56:15;5.80;99.90
1301;DHT22;67431;48.806;9.160;2023-02-03T04:58:41;5.80;99.90
1301;DHT22;67431;48.806;9.160;2023-02-03T05:01:07;5.70;99.90
1301;DHT22;67431;48.806;9.160;2023-02-03T05:03:34;5.70;99.90
1301;DHT22;67431;48.806;9.160;2023-02-03T05:06:00;5.80;99.90
1301;DHT22;67431;48.806;9.160;2023-02-03T05:08:29;5.70;99.90
1301;DHT22;67431;48.806;9.160;2023-02-03T05:10:55;5.70;99.90
1301;DHT22;67431;48.806;9.160;2023-02-03T05:13:21;5.80;99.90
1301;DHT22;67431;48.806;9.160;2023-02-03T05:15:47;5.70;99.90
1301;DHT22;67431;48.806;9.160;2023-02-03T05:18:13;5.80;99.90
1301;DHT22;67431;48.806;9.160;2023-02-03T05:20:39;5.70;99.90
1301;DHT22;67431;48.806;9.160;2023-02-03T05:23:04;5.70;99.90
1301;DHT22;67431;48.806;9.160;2023-02-03T05:25:30;5.80;99.90
1301;DHT22;67431;48.806;9.160;2023-02-03T05:27:56;5.90;99.90
1301;DHT22;67431;48.806;9.160;2023-02-03T05:30:23;5.80;99.90
1301;DHT22;67431;48.806;9.160;2023-02-03T05:32:49;5.90;99.90
1301;DHT22;67431;48.806;9.160;2023-02-03T05:35:16;5.80;99.90
1301;DHT22;67431;48.806;9.160;2023-02-03T05:37:45;5.80;99.90
1301;DHT22;67431;48.806;9.160;2023-02-03T05:40:12;5.90;99.90
1301;DHT22;67431;48.806;9.160;2023-02-03T05:42:56;5.90;99.90
1301;DHT22;67431;48.806;9.160;2023-02-03T05:45:22;5.90;99.90
1301;DHT22;67431;48.806;9.160;2023-02-03T05:47:49;5.90;99.90
1301;DHT22;67431;48.806;9.160;2023-02-03T05:50:14;5.90;99.90
1301;DHT22;67431;48.806;9.160;2023-02-03T05:52:41;5.80;99.90
1301;DHT22;67431;48.806;9.160;2023-02-03T05:55:08;5.90;99.90
1301;DHT22;67431;48.806;9.160;2023-02-03T05:57:33;6.00;99.90
1301;DHT22;67431;48.806;9.160;2023-02-03T05:59:59;6.00;99.90
1301;DHT22;67431;48.806;9.160;2023-02-03T06:02:25;5.90;99.90
1301;DHT22;67431;48.806;9.160;2023-02-03T06:04:51;6.00;99.90
1301;DHT22;67431;48.806;9.160;2023-02-03T06:07:18;6.00;99.90
1301;DHT22;67431;48.806;9.160;2023-02-03T06:09:45;5.90;99.90
1301;DHT22;67431;48.806;9.160;2023-02-03T06:12:10;6.00;99.90
1301;DHT22;67431;48.806;9.160;2023-02-03T06:14:36;6.00;99.90
1301;DHT22;67431;48.806;9.160;2023-02-03T06:17:02;6.00;99.90
1301;DHT22;67431;48.806;9.160;2023-02-03T06:19:28;6.00;99.90
1301;DHT22;67431;48.806;9.160;2023-02-03T06:21:54;6.00;99.90
1301;DHT22;67431;48.806;9.160;2023-02-03T06:24:20;6.00;99.90
1301;DHT22;67431;48.806;9.160;2023-02-03T06:26:46;6.00;99.90
1301;DHT22;67431;48.806;9.160;2023-02-03T06:29:12;6.00;99.90
1301;DHT22;67431;48.806;9.160;2023-02-03T06:31:38;6.00;99.90
1301;DHT22;67431;48.806;9.160;2023-02-03T06:34:04;6.00;99.90
1301;DHT22;67431;48.806;9.160;2023-02-03T06:36:29;6.00;99.90
1301;DHT22;67431;48.806;9.160;2023-02-03T06:38:55;6.00;99.90
1301;DHT22;67431;48.806;9.160;2023-02-03T06:41:21;6.10;99.90
1301;DHT22;67431;48.806;9.160;2023-02-03T06:43:52;6.00;99.90
1301;DHT22;67431;48.806;9.160;2023-02-03T06:46:18;6.00;99.90
1301;DHT22;67431;48.806;9.160;2023-02-03T06:48:44;6.00;99.90
1301;DHT22;67431;48.806;9.160;2023-02-03T06:51:09;5.90;99.90
1301;DHT22;67431;48.806;9.160;2023-02-03T06:53:35;5.80;99.90
1301;DHT22;67431;48.806;9.160;2023-02-03T06:56:01;5.80;99.90
1301;DHT22;67431;48.806;9.160;2023-02-03T06:58:28;5.70;99.90
1301;DHT22;67431;48.806;9.160;2023-02-03T07:00:57;5.70;99.90
1301;DHT22;67431;48.806;9.160;2023-02-03T07:03:23;5.70;99.90
1301;DHT22;67431;48.806;9.160;2023-02-03T07:05:48;5.60;99.90
1301;DHT22;67431;48.806;9.160;2023-02-03T07:08:14;5.60;99.90
1301;DHT22;67431;48.806;9.160;2023-02-03T07:10:40;5.60;99.90
1301;DHT22;67431;48.806;9.160;2023-02-03T07:13:06;5.60;99.90
1301;DHT22;67431;48.806;9.160;2023-02-03T07:15:33;5.50;99.90
1301;DHT22;67431;48.806;9.160;2023-02-03T07:17:59;5.50;99.90
1301;DHT22;67431;48.806;9.160;2023-02-03T07:20:25;5.50;99.90
1301;DHT22;67431;48.806;9.160;2023-02-03T07:22:55;5.50;99.90
1301;DHT22;67431;48.806;9.160;2023-02-03T07:25:22;5.60;99.90
1301;DHT22;67431;48.806;9.160;2023-02-03T07:27:49;5.60;99.90
1301;DHT22;67431;48.806;9.160;2023-02-03T07:30:15;5.60;99.90
1301;DHT22;67431;48.806;9.160;2023-02-03T07:32:47;5.60;99.90
1301;DHT22;67431;48.806;9.160;2023-02-03T07:35:13;5.60;99.90
1301;DHT22;67431;48.806;9.160;2023-02-03T07:37:40;5.60;99.90
1301;DHT22;67431;48.806;9.160;2023-02-03T07:40:06;5.60;99.90
1301;DHT22;67431;48.806;9.160;2023-02-03T07:42:32;5.60;99.90
1301;DHT22;67431;48.806;9.160;2023-02-03T07:44:58;5.60;99.90
1301;DHT22;67431;48.806;9.160;2023-02-03T07:47:24;5.60;99.90
1301;DHT22;67431;48.806;9.160;2023-02-03T07:49:50;5.60;99.90
1301;DHT22;67431;48.806;9.160;2023-02-03T07:52:16;5.70;99.90
1301;DHT22;67431;48.806;9.160;2023-02-03T07:54:42;5.70;99.90
1301;DHT22;67431;48.806;9.160;2023-02-03T07:57:07;5.70;99.90
1301;DHT22;67431;48.806;9.160;2023-02-03T07:59:33;5.70;99.90
1301;DHT22;67431;48.806;9.160;2023-02-03T08:02:01;5.80;99.90
1301;DHT22;67431;48.806;9.160;2023-02-03T08:04:28;5.80;99.90
1301;DHT22;67431;48.806;9.160;2023-02-03T08:06:54;5.80;99.90
1301;DHT22;67431;48.806;9.160;2023-02-03T08:09:20;5.90;99.90
1301;DHT22;67431;48.806;9.160;2023-02-03T08:11:45;6.00;99.90
1301;DHT22;67431;48.806;9.160;2023-02-03T08:14:11;6.00;99.90
1301;DHT22;67431;48.806;9.160;2023-02-03T08:16:37;5.90;99.90
1301;DHT22;67431;48.806;9.160;2023-02-03T08:19:03;5.90;99.90
1301;DHT22;67431;48.806;9.160;2023-02-03T08:21:33;5.90;99.90
1301;DHT22;67431;48.806;9.160;2023-02-03T08:23:59;5.80;99.90
1301;DHT22;67431;48.806;9.160;2023-02-03T08:26:25;5.80;99.90
1301;DHT22;67431;48.806;9.160;2023-02-03T08:28:51;5.80;99.90
1301;DHT22;67431;48.806;9.160;2023-02-03T08:31:18;5.70;99.90
1301;DHT22;67431;48.806;9.160;2023-02-03T08:33:44;5.80;99.90
1301;DHT22;67431;48.806;9.160;2023-02-03T08:36:10;5.70;99.90
1301;DHT22;67431;48.806;9.160;2023-02-03T08:38:36;5.70;99.90
1301;DHT22;67431;48.806;9.160;2023-02-03T08:41:08;5.70;99.90
1301;DHT22;67431;48.806;9.160;2023-02-03T08:43:34;5.70;99.90
1301;DHT22;67431;48.806;9.160;2023-02-03T08:46:05;5.80;99.90
1301;DHT22;67431;48.806;9.160;2023-02-03T08:48:31;5.80;99.90
1301;DHT22;67431;48.806;9.160;2023-02-03T08:50:57;5.80;99.90
1301;DHT22;67431;48.806;9.160;2023-02-03T08:53:23;5.90;99.90
1301;DHT22;67431;48.806;9.160;2023-02-03T08:55:49;5.90;99.90
1301;DHT22;67431;48.806;9.160;2023-02-03T08:58:15;5.90;99.90
1301;DHT22;67431;48.806;9.160;2023-02-03T09:00:42;5.90;99.90
1301;DHT22;67431;48.806;9.160;2023-02-03T09:03:08;5.90;99.90
1301;DHT22;67431;48.806;9.160;2023-02-03T09:05:34;5.90;99.90
1301;DHT22;67431;48.806;9.160;2023-02-03T09:07:59;6.00;99.90
1301;DHT22;67431;48.806;9.160;2023-02-03T09:10:25;6.10;99.90
1301;DHT22;67431;48.806;9.160;2023-02-03T09:12:51;6.10;99.90
1301;DHT22;67431;48.806;9.160;2023-02-03T09:15:20;6.10;99.90
1301;DHT22;67431;48.806;9.160;2023-02-03T09:17:46;6.20;99.90
1301;DHT22;67431;48.806;9.160;2023-02-03T09:20:11;6.10;99.90
1301;DHT22;67431;48.806;9.160;2023-02-03T09:22:40;6.20;99.90
1301;DHT22;67431;48.806;9.160;2023-02-03T09:25:06;6.20;99.90
1301;DHT22;67431;48.806;9.160;2023-02-03T09:27:32;6.30;99.90
1301;DHT22;67431;48.806;9.160;2023-02-03T09:29:58;6.50;99.90
1301;DHT22;67431;48.806;9.160;2023-02-03T09:32:24;6.50;99.90
1301;DHT22;67431;48.806;9.160;2023-02-03T09:34:49;6.60;99.90
1301;DHT22;67431;48.806;9.160;2023-02-03T09:37:18;6.60;99.90
1301;DHT22;67431;48.806;9.160;2023-02-03T09:39:44;6.70;99.90
1301;DHT22;67431;48.806;9.160;2023-02-03T09:42:35;6.80;99.90
1301;DHT22;67431;48.806;9.160;2023-02-03T09:45:27;6.90;99.90
1301;DHT22;67431;48.806;9.160;2023-02-03T09:47:56;6.80;99.90
1301;DHT22;67431;48.806;9.160;2023-02-03T09:50:28;6.90;99.90
1301;DHT22;67431;48.806;9.160;2023-02-03T09:52:55;7.00;99.90
1301;DHT22;67431;48.806;9.160;2023-02-03T09:55:33;7.00;99.90
1301;DHT22;67431;48.806;9.160;2023-02-03T10:00:35;7.10;99.90
1301;DHT22;67431;48.806;9.160;2023-02-03T10:05:57;7.20;99.90
1301;DHT22;67431;48.806;9.160;2023-02-03T10:14:55;7.60;99.90
1301;DHT22;67431;48.806;9.160;2023-02-03T10:17:21;7.70;99.90
1301;DHT22;67431;48.806;9.160;2023-02-03T10:20:10;7.90;99.90
1301;DHT22;67431;48.806;9.160;2023-02-03T10:22:51;8.00;99.90
1301;DHT22;67431;48.806;9.160;2023-02-03T10:25:29;8.10;99.90
1301;DHT22;67431;48.806;9.160;2023-02-03T10:28:00;8.20;99.90
1301;DHT22;67431;48.806;9.160;2023-02-03T10:30:32;8.10;99.90
1301;DHT22;67431;48.806;9.160;2023-02-03T10:33:16;8.20;99.90
1301;DHT22;67431;48.806;9.160;2023-02-03T10:35:49;8.30;99.90
1301;DHT22;67431;48.806;9.160;2023-02-03T10:38:40;8.30;99.90
1301;DHT22;67431;48.806;9.160;2023-02-03T10:41:08;8.20;99.90
1301;DHT22;67431;48.806;9.160;2023-02-03T10:43:35;8.20;99.90
1301;DHT22;67431;48.806;9.160;2023-02-03T10:46:14;8.10;99.90
1301;DHT22;67431;48.806;9.160;2023-02-03T10:48:39;8.10;99.90
1301;DHT22;67431;48.806;9.160;2023-02-03T10:53:50;8.20;99.90
1301;DHT22;67431;48.806;9.160;2023-02-03T10:56:38;8.60;99.90
1301;DHT22;67431;48.806;9.160;2023-02-03T10:59:05;9.10;99.90
1301;DHT22;67431;48.806;9.160;2023-02-03T11:01:43;10.00;99.90
1301;DHT22;67431;48.806;9.160;2023-02-03T11:04:42;10.00;99.90
1301;DHT22;67431;48.806;9.160;2023-02-03T11:07:23;9.90;99.90
1301;DHT22;67431;48.806;9.160;2023-02-03T11:09:50;9.80;99.90
1301;DHT22;67431;48.806;9.160;2023-02-03T11:12:19;9.80;99.90
1301;DHT22;67431;48.806;9.160;2023-02-03T11:14:50;9.80;99.90
1301;DHT22;67431;48.806;9.160;2023-02-03T11:17:26;9.50;99.90
1301;DHT22;67431;48.806;9.160;2023-02-03T11:20:02;9.20;99.90
1301;DHT22;67431;48.806;9.160;2023-02-03T11:22:31;8.80;99.90
1301;DHT22;67431;48.806;9.160;2023-02-03T11:25:02;8.70;99.90
1301;DHT22;67431;48.806;9.160;2023-02-03T11:27:31;8.70;99.90
1301;DHT22;67431;48.806;9.160;2023-02-03T11:30:22;8.60;99.90
1301;DHT22;67431;48.806;9.160;2023-02-03T11:32:49;8.50;99.90
1301;DHT22;67431;48.806;9.160;2023-02-03T11:35:24;8.60;99.90
1301;DHT22;67431;48.806;9.160;2023-02-03T11:37:55;8.60;99.90
1301;DHT22;67431;48.806;9.160;2023-02-03T11:45:37;9.10;99.90
1301;DHT22;67431;48.806;9.160;2023-02-03T12:10:12;8.60;99.90
1301;DHT22;67431;48.806;9.160;2023-02-03T12:12:44;8.70;99.90
1301;DHT22;67431;48.806;9.160;2023-02-03T12:18:19;8.70;99.90
1301;DHT22;67431;48.806;9.160;2023-02-03T12:21:18;8.80;99.90
1301;DHT22;67431;48.806;9.160;2023-02-03T12:24:03;8.70;99.90
1301;DHT22;67431;48.806;9.160;2023-02-03T12:29:33;8.70;99.90
1301;DHT22;67431;48.806;9.160;2023-02-03T12:32:31;8.70;99.90
1301;DHT22;67431;48.806;9.160;2023-02-03T12:35:14;8.70;99.90
1301;DHT22;67431;48.806;9.160;2023-02-03T12:37:54;8.70;99.90
1301;DHT22;67431;48.806;9.160;2023-02-03T12:42:58;8.40;99.90
1301;DHT22;67431;48.806;9.160;2023-02-03T12:45:29;8.40;99.90
1301;DHT22;67431;48.806;9.160;2023-02-03T12:48:00;8.40;99.90
1301;DHT22;67431;48.806;9.160;2023-02-03T12:53:43;8.50;99.90
1301;DHT22;67431;48.806;9.160;2023-02-03T12:56:14;8.50;99.90
1301;DHT22;67431;48.806;9.160;2023-02-03T12:58:52;8.40;99.90
1301;DHT22;67431;48.806;9.160;2023-02-03T13:01:35;8.50;99.90
1301;DHT22;67431;48.806;9.160;2023-02-03T13:04:23;8.40;99.90
1301;DHT22;67431;48.806;9.160;2023-02-03T13:07:15;8.50;99.90
1301;DHT22;67431;48.806;9.160;2023-02-03T13:15:30;8.60;99.90
1301;DHT22;67431;48.806;9.160;2023-02-03T13:18:20;8.60;99.90
1301;DHT22;67431;48.806;9.160;2023-02-03T13:20:52;8.70;99.90
1301;DHT22;67431;48.806;9.160;2023-02-03T13:23:22;8.60;99.90
1301;DHT22;67431;48.806;9.160;2023-02-03T13:34:03;8.50;99.90
1301;DHT22;67431;48.806;9.160;2023-02-03T13:42:07;8.60;99.90
1301;DHT22;67431;48.806;9.160;2023-02-03T13:44:36;8.60;99.90
1301;DHT22;67431;48.806;9.160;2023-02-03T13:47:04;8.70;99.90
1301;DHT22;67431;48.806;9.160;2023-02-03T13:49:32;8.60;99.90
1301;DHT22;67431;48.806;9.160;2023-02-03T13:51:59;8.60;99.90
1301;DHT22;67431;48.806;9.160;2023-02-03T13:54:36;8.60;99.90
1301;DHT22;67431;48.806;9.160;2023-02-03T13:57:22;8.60;99.90
1301;DHT22;67431;48.806;9.160;2023-02-03T13:59:51;8.60;99.90
1301;DHT22;67431;48.806;9.160;2023-02-03T14:07:26;8.50;99.90
1301;DHT22;67431;48.806;9.160;2023-02-03T14:10:22;8.50;99.90
1301;DHT22;67431;48.806;9.160;2023-02-03T14:25:25;8.50;99.90
1301;DHT22;67431;48.806;9.160;2023-02-03T14:27:59;8.50;99.90
1301;DHT22;67431;48.806;9.160;2023-02-03T14:30:27;8.50;99.90
1301;DHT22;67431;48.806;9.160;2023-02-03T14:33:02;8.40;99.90
1301;DHT22;67431;48.806;9.160;2023-02-03T14:35:41;8.40;99.90
1301;DHT22;67431;48.806;9.160;2023-02-03T14:38:12;8.50;99.90
1301;DHT22;67431;48.806;9.160;2023-02-03T14:40:55;8.50;99.90
1301;DHT22;67431;48.806;9.160;2023-02-03T14:46:10;8.40;99.90
1301;DHT22;67431;48.806;9.160;2023-02-03T14:48:56;8.40;99.90
1301;DHT22;67431;48.806;9.160;2023-02-03T14:51:40;8.50;99.90
1301;DHT22;67431;48.806;9.160;2023-02-03T14:56:59;8.50;99.90
1301;DHT22;67431;48.806;9.160;2023-02-03T14:59:43;8.50;99.90
1301;DHT22;67431;48.806;9.160;2023-02-03T15:04:40;8.40;99.90
1301;DHT22;67431;48.806;9.160;2023-02-03T15:07:06;8.40;99.90
1301;DHT22;67431;48.806;9.160;2023-02-03T15:09:44;8.40;99.90
1301;DHT22;67431;48.806;9.160;2023-02-03T15:12:24;8.30;99.90
1301;DHT22;67431;48.806;9.160;2023-02-03T15:14:51;8.30;99.90
1301;DHT22;67431;48.806;9.160;2023-02-03T15:17:26;8.30;99.90
1301;DHT22;67431;48.806;9.160;2023-02-03T15:19:52;8.20;99.90
1301;DHT22;67431;48.806;9.160;2023-02-03T15:22:26;8.20;99.90
1301;DHT22;67431;48.806;9.160;2023-02-03T15:24:56;8.30;99.90
1301;DHT22;67431;48.806;9.160;2023-02-03T15:27:28;8.30;99.90
1301;DHT22;67431;48.806;9.160;2023-02-03T15:29:54;8.30;99.90
1301;DHT22;67431;48.806;9.160;2023-02-03T15:32:35;8.30;99.90
1301;DHT22;67431;48.806;9.160;2023-02-03T15:35:06;8.30;99.90
1301;DHT22;67431;48.806;9.160;2023-02-03T15:40:13;8.30;99.90
1301;DHT22;67431;48.806;9.160;2023-02-03T15:51:10;8.30;99.90
1301;DHT22;67431;48.806;9.160;2023-02-03T15:54:18;8.30;99.90
1301;DHT22;67431;48.806;9.160;2023-02-03T15:56:58;8.20;99.90
1301;DHT22;67431;48.806;9.160;2023-02-03T16:01:54;8.20;99.90
1301;DHT22;67431;48.806;9.160;2023-02-03T16:04:24;8.20;99.90
1301;DHT22;67431;48.806;9.160;2023-02-03T16:06:52;8.20;99.90
1301;DHT22;67431;48.806;9.160;2023-02-03T16:12:10;8.20;99.90
1301;DHT22;67431;48.806;9.160;2023-02-03T16:14:37;8.20;99.90
1301;DHT22;67431;48.806;9.160;2023-02-03T16:17:03;8.10;99.90
1301;DHT22;67431;48.806;9.160;2023-02-03T16:19:30;7.90;99.90
1301;DHT22;67431;48.806;9.160;2023-02-03T16:22:02;7.80;99.90
1301;DHT22;67431;48.806;9.160;2023-02-03T16:29:50;7.60;99.90
1301;DHT22;67431;48.806;9.160;2023-02-03T16:32:35;7.50;99.90
1301;DHT22;67431;48.806;9.160;2023-02-03T16:35:20;7.50;99.90
1301;DHT22;67431;48.806;9.160;2023-02-03T16:38:15;7.50;99.90
1301;DHT22;67431;48.806;9.160;2023-02-03T16:40:59;7.50;99.90
1301;DHT22;67431;48.806;9.160;2023-02-03T16:43:44;7.50;99.90
1301;DHT22;67431;48.806;9.160;2023-02-03T16:46:29;7.60;99.90
1301;DHT22;67431;48.806;9.160;2023-02-03T16:49:14;7.60;99.90
1301;DHT22;67431;48.806;9.160;2023-02-03T16:51:58;7.60;99.90
1301;DHT22;67431;48.806;9.160;2023-02-03T16:54:24;7.60;99.90
1301;DHT22;67431;48.806;9.160;2023-02-03T16:56:55;7.60;99.90
1301;DHT22;67431;48.806;9.160;2023-02-03T16:59:21;7.70;99.90
1301;DHT22;67431;48.806;9.160;2023-02-03T17:01:47;7.80;99.90
1301;DHT22;67431;48.806;9.160;2023-02-03T17:04:13;7.70;99.90
1301;DHT22;67431;48.806;9.160;2023-02-03T17:06:39;7.70;99.90
1301;DHT22;67431;48.806;9.160;2023-02-03T17:09:07;7.80;99.90
1301;DHT22;67431;48.806;9.160;2023-02-03T17:11:33;7.80;99.90
1301;DHT22;67431;48.806;9.160;2023-02-03T17:13:58;7.80;99.90
1301;DHT22;67431;48.806;9.160;2023-02-03T17:16:25;7.80;99.90
1301;DHT22;67431;48.806;9.160;2023-02-03T17:18:52;7.90;99.90
1301;DHT22;67431;48.806;9.160;2023-02-03T17:21:24;7.90;99.90
1301;DHT22;67431;48.806;9.160;2023-02-03T17:23:50;7.90;99.90
1301;DHT22;67431;48.806;9.160;2023-02-03T17:26:16;7.90;99.90
1301;DHT22;67431;48.806;9.160;2023-02-03T17:28:42;7.90;99.90
1301;DHT22;67431;48.806;9.160;2023-02-03T17:31:19;7.90;99.90
1301;DHT22;67431;48.806;9.160;2023-02-03T17:33:50;8.00;99.90
1301;DHT22;67431;48.806;9.160;2023-02-03T17:36:18;8.00;99.90
1301;DHT22;67431;48.806;9.160;2023-02-03T17:38:47;7.90;99.90
1301;DHT22;67431;48.806;9.160;2023-02-03T17:41:15;7.90;99.90
1301;DHT22;67431;48.806;9.160;2023-02-03T17:43:42;7.90;99.90
1301;DHT22;67431;48.806;9.160;2023-02-03T17:46:10;8.00;99.90
1301;DHT22;67431;48.806;9.160;2023-02-03T17:48:37;8.00;99.90
1301;DHT22;67431;48.806;9.160;2023-02-03T17:51:17;8.00;99.90
1301;DHT22;67431;48.806;9.160;2023-02-03T17:53:45;8.00;99.90
1301;DHT22;67431;48.806;9.160;2023-02-03T17:56:16;8.00;99.90
1301;DHT22;67431;48.806;9.160;2023-02-03T17:58:43;8.10;99.90
1301;DHT22;67431;48.806;9.160;2023-02-03T18:01:15;8.10;99.90
1301;DHT22;67431;48.806;9.160;2023-02-03T18:03:50;8.10;99.90
1301;DHT22;67431;48.806;9.160;2023-02-03T18:06:19;8.10;99.90
1301;DHT22;67431;48.806;9.160;2023-02-03T18:08:46;8.20;99.90
1301;DHT22;67431;48.806;9.160;2023-02-03T18:11:14;8.20;99.90
1301;DHT22;67431;48.806;9.160;2023-02-03T18:13:42;8.20;99.90
1301;DHT22;67431;48.806;9.160;2023-02-03T18:16:12;8.20;99.90
1301;DHT22;67431;48.806;9.160;2023-02-03T18:18:42;8.20;99.90
1301;DHT22;67431;48.806;9.160;2023-02-03T18:21:10;8.20;99.90
1301;DHT22;67431;48.806;9.160;2023-02-03T18:23:37;8.20;99.90
1301;DHT22;67431;48.806;9.160;2023-02-03T18:26:05;8.30;99.90
1301;DHT22;67431;48.806;9.160;2023-02-03T18:28:32;8.30;99.90
1301;DHT22;67431;48.806;9.160;2023-02-03T18:31:02;8.20;99.90
1301;DHT22;67431;48.806;9.160;2023-02-03T18:33:28;8.30;99.90
1301;DHT22;67431;48.806;9.160;2023-02-03T18:35:56;8.30;99.90
1301;DHT22;67431;48.806;9.160;2023-02-03T18:38:29;8.30;99.90
1301;DHT22;67431;48.806;9.160;2023-02-03T18:40:58;8.20;99.90
1301;DHT22;67431;48.806;9.160;2023-02-03T18:43:24;8.20;99.90
1301;DHT22;67431;48.806;9.160;2023-02-03T18:45:50;8.20;99.90
1301;DHT22;67431;48.806;9.160;2023-02-03T18:48:16;8.20;99.90
1301;DHT22;67431;48.806;9.160;2023-02-03T18:50:42;8.20;99.90
1301;DHT22;67431;48.806;9.160;2023-02-03T18:53:09;8.20;99.90